createdAt,value
2023-01-31T00:02:27.888Z,100196.19
2023-01-31T00:05:30.708Z,100196.59
2023-01-31T00:08:33.779Z,100212.25
2023-01-31T00:11:37.585Z,100205.69
2023-01-31T00:14:40.551Z,100215.19
2023-01-31T00:17:43.448Z,100206.81
2023-01-31T00:20:46.253Z,100220.41
2023-01-31T00:23:50.242Z,100219.28
2023-01-31T00:26:57.115Z,100234.50
2023-01-31T00:30:00.298Z,100234.03
2023-01-31T00:33:03.249Z,100228.81
2023-01-31T00:36:08.179Z,100237.13
2023-01-31T00:39:11.660Z,100242.34
2023-01-31T00:42:14.618Z,100249.22
2023-01-31T00:45:17.954Z,100260.59
2023-01-31T00:48:21.317Z,100260.91
2023-01-31T00:51:26.673Z,100260.59
2023-01-31T00:54:29.656Z,100268.56
2023-01-31T00:57:32.477Z,100269.91
2023-01-31T01:00:35.748Z,100266.66
2023-01-31T01:03:39.844Z,100284.78
2023-01-31T01:06:42.893Z,100286.16
2023-01-31T01:09:46.087Z,100292.50
2023-01-31T01:12:48.926Z,100292.78
2023-01-31T01:15:51.836Z,100296.34
2023-01-31T01:18:57.779Z,100294.69
2023-01-31T01:22:05.082Z,100303.22
2023-01-31T01:25:08.602Z,100299.06
2023-01-31T01:28:11.568Z,100295.22
2023-01-31T01:31:18.686Z,100304.69
2023-01-31T01:34:21.543Z,100304.25
2023-01-31T01:37:24.540Z,100312.78
2023-01-31T01:40:34.892Z,100306.78
2023-01-31T01:43:42.273Z,100307.34
2023-01-31T01:46:46.306Z,100320.59
2023-01-31T01:49:53.563Z,100318.81
2023-01-31T01:53:07.018Z,100322.69
2023-01-31T01:56:19.715Z,100324.47
2023-01-31T01:59:29.217Z,100323.47
2023-01-31T02:02:32.272Z,100332.37
2023-01-31T02:05:46.609Z,100337.22
2023-01-31T02:08:49.915Z,100340.56
2023-01-31T02:11:52.794Z,100319.09
2023-01-31T02:14:55.793Z,100328.00
2023-01-31T02:17:58.749Z,100338.44
2023-01-31T02:21:52.792Z,100331.50
2023-01-31T02:25:04.776Z,100331.38
2023-01-31T02:28:59.464Z,100341.09
2023-01-31T02:32:22.792Z,100335.37
2023-01-31T02:35:40.724Z,100340.97
2023-01-31T02:39:13.168Z,100347.28
2023-01-31T02:42:43.941Z,100344.09
2023-01-31T02:45:52.605Z,100357.38
2023-01-31T02:49:04.912Z,100364.12
2023-01-31T02:52:23.823Z,100370.44
2023-01-31T02:55:46.034Z,100368.78
2023-01-31T02:59:08.467Z,100363.50
2023-01-31T03:02:11.546Z,100377.56
2023-01-31T03:05:16.284Z,100384.56
2023-01-31T03:08:23.272Z,100384.81
2023-01-31T03:11:38.035Z,100391.56
2023-01-31T03:14:47.484Z,100399.72
2023-01-31T03:18:13.936Z,100395.34
2023-01-31T03:21:21.749Z,100401.47
2023-01-31T03:24:26.646Z,100403.28
2023-01-31T03:27:29.714Z,100408.25
2023-01-31T03:30:52.329Z,100411.81
2023-01-31T03:33:58.735Z,100427.09
2023-01-31T03:37:16.695Z,100421.75
2023-01-31T03:40:35.185Z,100427.53
2023-01-31T03:43:44.587Z,100437.00
2023-01-31T03:46:51.300Z,100425.50
2023-01-31T03:49:56.053Z,100430.03
2023-01-31T03:53:19.484Z,100434.78
2023-01-31T03:56:42.739Z,100431.50
2023-01-31T03:59:48.632Z,100437.78
2023-01-31T04:02:56.422Z,100436.94
2023-01-31T04:05:59.414Z,100442.34
2023-01-31T04:09:02.424Z,100444.31
2023-01-31T04:12:05.629Z,100439.38
2023-01-31T04:15:09.598Z,100453.25
2023-01-31T04:18:13.168Z,100446.06
2023-01-31T04:21:16.204Z,100453.75
2023-01-31T04:24:19.262Z,100452.72
2023-01-31T04:27:25.146Z,100467.94
2023-01-31T04:30:27.939Z,100438.34
2023-01-31T04:33:30.807Z,100443.69
2023-01-31T04:36:34.023Z,100452.06
2023-01-31T04:39:37.311Z,100434.09
2023-01-31T04:42:40.787Z,100465.50
2023-01-31T04:45:43.938Z,100472.25
2023-01-31T04:48:46.835Z,100473.94
2023-01-31T04:51:52.696Z,100473.50
2023-01-31T04:54:55.595Z,100476.19
2023-01-31T04:57:58.327Z,100469.78
2023-01-31T05:01:01.365Z,100472.03
2023-01-31T05:04:05.161Z,100477.81
2023-01-31T05:07:08.422Z,100470.25
2023-01-31T05:10:11.962Z,100471.44
2023-01-31T05:13:14.981Z,100473.12
2023-01-31T05:16:17.997Z,100475.03
2023-01-31T05:19:21.585Z,100477.87
2023-01-31T05:22:25.196Z,100493.03
2023-01-31T05:25:28.245Z,100489.59
2023-01-31T05:28:31.336Z,100498.50
2023-01-31T05:31:34.550Z,100489.25
2023-01-31T05:34:37.538Z,100491.59
2023-01-31T05:37:43.240Z,100494.22
2023-01-31T05:40:47.031Z,100497.87
2023-01-31T05:43:49.880Z,100512.09
2023-01-31T05:46:52.734Z,100528.19
2023-01-31T05:49:55.664Z,100541.56
2023-01-31T05:53:06.304Z,100533.50
2023-01-31T05:56:09.326Z,100543.59
2023-01-31T05:59:15.345Z,100547.25
2023-01-31T06:02:18.537Z,100552.56
2023-01-31T06:05:24.500Z,100537.53
2023-01-31T06:08:27.420Z,100552.09
2023-01-31T06:11:30.913Z,100553.44
2023-01-31T06:14:33.945Z,100563.03
2023-01-31T06:17:36.923Z,100585.41
2023-01-31T06:20:39.992Z,100583.84
2023-01-31T06:23:46.459Z,100588.47
2023-01-31T06:26:50.132Z,100593.88
2023-01-31T06:29:53.580Z,100596.44
2023-01-31T06:32:56.621Z,100602.47
2023-01-31T06:36:00.635Z,100605.38
2023-01-31T06:39:04.493Z,100615.28
2023-01-31T06:42:07.547Z,100629.47
2023-01-31T06:45:11.048Z,100634.38
2023-01-31T06:48:13.971Z,100631.38
2023-01-31T06:51:17.653Z,100631.50
2023-01-31T06:54:20.508Z,100626.19
2023-01-31T06:57:23.448Z,100635.91
2023-01-31T07:00:27.146Z,100650.13
2023-01-31T07:03:30.284Z,100643.50
2023-01-31T07:06:33.309Z,100669.62
2023-01-31T07:09:36.265Z,100668.34
2023-01-31T07:12:39.342Z,100681.03
2023-01-31T07:15:42.701Z,100669.22
2023-01-31T07:18:46.004Z,100657.06
2023-01-31T07:21:49.582Z,100657.66
2023-01-31T07:24:53.561Z,100647.56
2023-01-31T07:27:56.980Z,100634.09
2023-01-31T07:31:13.464Z,100634.59
2023-01-31T07:34:16.621Z,100644.53
2023-01-31T07:37:19.587Z,100657.22
2023-01-31T07:40:23.197Z,100661.13
2023-01-31T07:43:26.062Z,100671.84
2023-01-31T07:46:29.850Z,100674.31
2023-01-31T07:49:33.212Z,100682.84
2023-01-31T07:52:36.138Z,100696.00
2023-01-31T07:55:39.179Z,100692.94
2023-01-31T07:58:43.081Z,100708.13
2023-01-31T08:02:05.249Z,100708.13
2023-01-31T08:05:10.711Z,100708.59
2023-01-31T08:08:14.410Z,100709.06
2023-01-31T08:11:17.306Z,100713.50
2023-01-31T08:14:25.593Z,100709.94
2023-01-31T08:17:28.614Z,100714.22
2023-01-31T08:20:31.745Z,100719.91
2023-01-31T08:23:35.530Z,100703.50
2023-01-31T08:26:38.432Z,100717.03
2023-01-31T08:29:41.506Z,100716.34
2023-01-31T08:32:44.341Z,100709.00
2023-01-31T08:35:47.305Z,100712.69
2023-01-31T08:38:50.749Z,100726.78
2023-01-31T08:41:53.761Z,100719.91
2023-01-31T08:44:56.802Z,100721.94
2023-01-31T08:48:00.909Z,100726.91
2023-01-31T08:51:05.517Z,100729.75
2023-01-31T08:54:10.821Z,100740.56
2023-01-31T08:57:13.765Z,100742.31
2023-01-31T09:00:18.067Z,100751.41
2023-01-31T09:03:21.043Z,100750.72
2023-01-31T09:06:26.323Z,100752.81
2023-01-31T09:09:30.666Z,100757.03
2023-01-31T09:12:34.966Z,100754.63
2023-01-31T09:15:39.076Z,100771.84
2023-01-31T09:18:43.079Z,100774.00
2023-01-31T09:21:45.975Z,100777.59
2023-01-31T09:24:48.975Z,100785.19
2023-01-31T09:27:53.390Z,100789.50
2023-01-31T09:30:56.492Z,100778.09
2023-01-31T09:33:59.527Z,100795.66
2023-01-31T09:37:02.492Z,100794.62
2023-01-31T09:40:06.260Z,100806.00
2023-01-31T09:43:11.949Z,100825.81
2023-01-31T09:46:18.348Z,100823.53
2023-01-31T09:49:24.752Z,100793.72
2023-01-31T09:52:28.594Z,100805.56
2023-01-31T09:55:56.819Z,100817.75
2023-01-31T09:59:12.947Z,100822.94
2023-01-31T10:02:38.224Z,100821.50
2023-01-31T10:06:00.366Z,100802.00
2023-01-31T10:09:13.480Z,100796.59
2023-01-31T10:12:20.873Z,100804.53
2023-01-31T10:15:43.451Z,100788.53
2023-01-31T10:18:51.589Z,100797.56
2023-01-31T10:21:57.699Z,100802.09
2023-01-31T10:25:39.172Z,100789.75
2023-01-31T10:29:28.146Z,100791.03
2023-01-31T10:32:42.492Z,100789.41
2023-01-31T10:35:45.762Z,100789.87
2023-01-31T10:39:12.812Z,100796.44
2023-01-31T10:42:21.115Z,100780.75
2023-01-31T10:45:31.878Z,100774.88
2023-01-31T10:48:35.033Z,100770.25
2023-01-31T10:52:19.943Z,100768.87
2023-01-31T10:55:36.252Z,100760.75
2023-01-31T10:58:40.548Z,100780.16
2023-01-31T11:01:43.397Z,100766.59
2023-01-31T11:04:46.311Z,100767.69
2023-01-31T11:07:50.342Z,100772.78
2023-01-31T11:10:55.805Z,100772.91
2023-01-31T11:14:06.189Z,100776.88
2023-01-31T11:17:16.447Z,100769.44
2023-01-31T11:20:25.879Z,100752.37
2023-01-31T11:23:31.796Z,100752.25
2023-01-31T11:26:39.705Z,100748.22
2023-01-31T11:29:49.626Z,100743.25
2023-01-31T11:32:52.766Z,100752.25
2023-01-31T11:35:58.662Z,100751.00
2023-01-31T11:39:28.902Z,100728.22
2023-01-31T11:42:32.556Z,100743.19
2023-01-31T11:45:39.799Z,100740.06
2023-01-31T11:48:44.553Z,100742.09
2023-01-31T11:51:48.074Z,100734.94
2023-01-31T11:54:55.681Z,100727.47
2023-01-31T11:58:00.520Z,100713.56
2023-01-31T12:01:09.011Z,100714.53
2023-01-31T12:04:18.136Z,100704.25
2023-01-31T12:07:30.582Z,100711.47
2023-01-31T12:10:43.536Z,100710.72
2023-01-31T12:13:51.091Z,100714.56
2023-01-31T12:16:56.700Z,100713.81
2023-01-31T12:20:27.045Z,100702.59
2023-01-31T12:23:42.946Z,100726.97
2023-01-31T12:26:57.041Z,100718.00
2023-01-31T12:30:06.338Z,100701.47
2023-01-31T12:33:28.004Z,100715.56
2023-01-31T12:36:55.208Z,100706.03
2023-01-31T12:40:25.679Z,100706.19
2023-01-31T12:43:48.429Z,100707.00
2023-01-31T12:47:19.632Z,100701.53
2023-01-31T12:50:31.892Z,100705.41
2023-01-31T12:53:46.883Z,100703.22
2023-01-31T12:57:23.864Z,100700.88
2023-01-31T13:00:43.501Z,100692.72
2023-01-31T13:04:11.859Z,100701.56
2023-01-31T13:07:40.589Z,100702.38
2023-01-31T13:10:55.590Z,100703.28
2023-01-31T13:14:02.796Z,100707.81
2023-01-31T13:17:09.217Z,100707.53
2023-01-31T13:20:12.123Z,100704.91
2023-01-31T13:23:23.653Z,100716.47
2023-01-31T13:26:36.123Z,100717.00
2023-01-31T13:29:45.991Z,100717.12
2023-01-31T13:32:50.385Z,100716.72
2023-01-31T13:36:00.639Z,100709.72
2023-01-31T13:39:12.686Z,100719.94
2023-01-31T13:42:16.853Z,100717.34
2023-01-31T13:45:36.124Z,100704.13
2023-01-31T13:49:08.464Z,100718.72
2023-01-31T13:52:18.363Z,100702.19
2023-01-31T13:55:35.612Z,100712.09
2023-01-31T13:58:39.848Z,100701.50
2023-01-31T14:01:46.610Z,100711.16
2023-01-31T14:04:49.653Z,100713.19
2023-01-31T14:08:26.795Z,100701.06
2023-01-31T14:11:29.540Z,100703.97
2023-01-31T14:14:42.171Z,100700.66
2023-01-31T14:17:45.909Z,100700.91
2023-01-31T14:20:55.623Z,100698.16
2023-01-31T14:24:00.567Z,100713.31
2023-01-31T14:27:04.032Z,100710.84
2023-01-31T14:30:08.042Z,100699.97
2023-01-31T14:33:12.274Z,100711.13
2023-01-31T14:36:44.775Z,100709.59
2023-01-31T14:39:51.896Z,100717.47
2023-01-31T14:43:20.034Z,100700.91
2023-01-31T14:46:28.777Z,100706.69
2023-01-31T14:50:17.379Z,100717.00
2023-01-31T14:53:29.345Z,100708.16
2023-01-31T14:57:01.621Z,100708.41
2023-01-31T15:00:06.783Z,100716.62
2023-01-31T15:03:22.130Z,100721.31
2023-01-31T15:06:26.683Z,100716.47
2023-01-31T15:09:40.155Z,100713.16
2023-01-31T15:13:01.985Z,100715.34
2023-01-31T15:16:35.628Z,100707.75
2023-01-31T15:19:59.570Z,100707.75
2023-01-31T15:23:05.525Z,100706.22
2023-01-31T15:26:09.836Z,100693.94
2023-01-31T15:29:21.614Z,100702.31
2023-01-31T15:32:30.902Z,100699.25
2023-01-31T15:35:47.540Z,100694.37
2023-01-31T15:38:57.072Z,100700.38
2023-01-31T15:42:19.801Z,100708.22
2023-01-31T15:45:25.640Z,100698.97
2023-01-31T15:48:28.636Z,100710.06
2023-01-31T15:51:33.681Z,100705.37
2023-01-31T15:54:37.853Z,100702.03
2023-01-31T15:57:58.367Z,100702.16
2023-01-31T16:01:03.343Z,100701.59
2023-01-31T16:04:07.804Z,100704.47
2023-01-31T16:07:20.736Z,100707.47
2023-01-31T16:10:24.194Z,100720.88
2023-01-31T16:13:28.851Z,100715.78
2023-01-31T16:16:35.270Z,100717.34
2023-01-31T16:19:39.948Z,100710.72
2023-01-31T16:22:56.763Z,100725.50
2023-01-31T16:26:06.393Z,100726.19
2023-01-31T16:29:17.757Z,100726.44
2023-01-31T16:32:32.395Z,100723.12
2023-01-31T16:35:35.448Z,100724.78
2023-01-31T16:38:41.527Z,100723.88
2023-01-31T16:41:57.194Z,100722.78
2023-01-31T16:45:00.444Z,100735.97
2023-01-31T16:48:29.978Z,100734.66
2023-01-31T16:51:42.620Z,100725.66
2023-01-31T16:54:51.839Z,100719.84
2023-01-31T16:57:56.442Z,100711.44
2023-01-31T17:01:18.567Z,100716.66
2023-01-31T17:04:23.311Z,100699.53
2023-01-31T17:07:47.248Z,100688.66
2023-01-31T17:10:50.602Z,100692.22
2023-01-31T17:13:53.960Z,100688.41
2023-01-31T17:16:58.319Z,100677.84
2023-01-31T17:20:02.339Z,100682.72
2023-01-31T17:23:08.379Z,100674.16
2023-01-31T17:26:32.054Z,100680.31
2023-01-31T17:29:37.218Z,100683.88
2023-01-31T17:32:42.940Z,100677.72
2023-01-31T17:35:47.407Z,100686.12
2023-01-31T17:38:52.659Z,100680.81
2023-01-31T17:41:57.616Z,100679.81
2023-01-31T17:45:02.335Z,100683.50
2023-01-31T17:48:07.756Z,100670.06
2023-01-31T17:51:13.460Z,100672.19
2023-01-31T17:54:30.269Z,100673.78
2023-01-31T17:57:46.806Z,100667.97
2023-01-31T18:00:58.466Z,100662.75
2023-01-31T18:04:03.943Z,100670.25
2023-01-31T18:07:07.537Z,100675.25
2023-01-31T18:10:11.551Z,100678.09
2023-01-31T18:13:36.377Z,100680.00
2023-01-31T18:16:51.645Z,100678.59
2023-01-31T18:19:55.601Z,100680.00
2023-01-31T18:23:00.574Z,100676.78
2023-01-31T18:26:07.995Z,100688.81
2023-01-31T18:29:13.303Z,100678.59
2023-01-31T18:32:20.311Z,100686.19
2023-01-31T18:35:26.915Z,100684.06
2023-01-31T18:38:32.082Z,100681.22
2023-01-31T18:41:35.931Z,100673.97
2023-01-31T18:44:39.128Z,100680.25
2023-01-31T18:47:42.720Z,100689.31
2023-01-31T18:50:47.876Z,100693.56
2023-01-31T18:53:53.104Z,100702.72
2023-01-31T18:56:58.543Z,100726.56
2023-01-31T19:00:02.138Z,100713.12
2023-01-31T19:03:07.003Z,100716.13
2023-01-31T19:06:21.824Z,100724.16
2023-01-31T19:09:27.830Z,100716.31
2023-01-31T19:12:34.827Z,100731.81
2023-01-31T19:15:39.375Z,100727.94
2023-01-31T19:18:42.798Z,100738.50
2023-01-31T19:21:46.141Z,100729.63
2023-01-31T19:24:50.617Z,100722.75
2023-01-31T19:28:04.223Z,100706.62
2023-01-31T19:31:15.833Z,100704.03
2023-01-31T19:34:21.644Z,100689.69
2023-01-31T19:37:25.199Z,100700.22
2023-01-31T19:40:28.965Z,100688.25
2023-01-31T19:43:37.420Z,100686.00
2023-01-31T19:46:44.602Z,100666.34
2023-01-31T19:49:49.838Z,100668.13
2023-01-31T19:52:54.568Z,100670.25
2023-01-31T19:56:00.484Z,100670.72
2023-01-31T19:59:09.044Z,100652.91
2023-01-31T20:02:23.964Z,100653.16
2023-01-31T20:05:30.069Z,100659.22
2023-01-31T20:08:34.187Z,100658.72
2023-01-31T20:11:38.300Z,100654.44
2023-01-31T20:14:41.504Z,100653.13
2023-01-31T20:17:44.897Z,100649.97
2023-01-31T20:20:48.127Z,100652.22
2023-01-31T20:23:51.393Z,100653.63
2023-01-31T20:26:54.575Z,100637.53
2023-01-31T20:29:57.996Z,100638.78
2023-01-31T20:33:01.151Z,100629.75
2023-01-31T20:36:06.546Z,100626.75
2023-01-31T20:39:13.621Z,100624.59
2023-01-31T20:42:17.049Z,100632.88
2023-01-31T20:45:20.282Z,100615.75
2023-01-31T20:48:23.495Z,100621.16
2023-01-31T20:51:26.799Z,100608.09
2023-01-31T20:54:31.261Z,100598.72
2023-01-31T20:57:34.459Z,100597.47
2023-01-31T21:00:37.628Z,100595.09
2023-01-31T21:03:40.908Z,100600.25
2023-01-31T21:06:46.442Z,100600.69
2023-01-31T21:09:50.009Z,100598.06
2023-01-31T21:12:52.998Z,100591.88
2023-01-31T21:15:58.403Z,100583.34
2023-01-31T21:19:02.842Z,100587.88
2023-01-31T21:22:06.378Z,100580.88
2023-01-31T21:25:10.407Z,100586.22
2023-01-31T21:28:13.809Z,100585.44
2023-01-31T21:31:20.245Z,100594.03
2023-01-31T21:34:27.263Z,100592.22
2023-01-31T21:37:30.300Z,100599.28
2023-01-31T21:40:33.400Z,100594.31
2023-01-31T21:43:41.119Z,100604.66
2023-01-31T21:46:46.185Z,100604.28
2023-01-31T21:49:49.011Z,100594.94
2023-01-31T21:52:52.080Z,100603.22
2023-01-31T21:56:03.097Z,100599.91
2023-01-31T21:59:06.042Z,100607.75
2023-01-31T22:02:11.064Z,100597.19
2023-01-31T22:05:13.989Z,100615.78
2023-01-31T22:08:16.968Z,100601.03
2023-01-31T22:11:20.207Z,100593.84
2023-01-31T22:14:23.113Z,100592.38
2023-01-31T22:17:25.953Z,100578.84
2023-01-31T22:20:29.122Z,100571.28
2023-01-31T22:23:33.596Z,100581.75
2023-01-31T22:26:39.524Z,100579.00
2023-01-31T22:29:42.694Z,100571.16
2023-01-31T22:32:45.652Z,100558.06
2023-01-31T22:35:48.510Z,100559.44
2023-01-31T22:38:51.606Z,100556.44
2023-01-31T22:41:54.717Z,100575.84
2023-01-31T22:44:57.600Z,100558.50
2023-01-31T22:48:03.912Z,100564.41
2023-01-31T22:51:14.833Z,100554.25
2023-01-31T22:54:18.784Z,100548.44
2023-01-31T22:57:22.121Z,100559.06
2023-01-31T23:00:25.141Z,100559.88
2023-01-31T23:03:28.465Z,100541.59
2023-01-31T23:06:31.322Z,100542.81
2023-01-31T23:09:34.253Z,100565.66
2023-01-31T23:12:37.197Z,100537.72
2023-01-31T23:15:40.655Z,100549.41
2023-01-31T23:18:43.488Z,100541.28
2023-01-31T23:21:46.436Z,100537.00
2023-01-31T23:24:49.226Z,100543.75
2023-01-31T23:27:52.131Z,100549.81
2023-01-31T23:30:55.063Z,100543.50
2023-01-31T23:34:00.446Z,100538.13
2023-01-31T23:37:03.227Z,100542.94
2023-01-31T23:40:07.636Z,100538.53
2023-01-31T23:43:10.522Z,100539.91
2023-01-31T23:46:13.459Z,100538.66
2023-01-31T23:49:16.306Z,100526.81
2023-01-31T23:52:19.422Z,100524.22
2023-01-31T23:55:23.035Z,100514.31
2023-01-31T23:58:26.068Z,100507.16
